Aviation Digital Data Service (ADDS)

Output produced by METARs form (0507 UTC 24 January 2019)
found at http://www.aviationweather.gov/metar/data/
 
Forecast for: RPLB (OLONGAPO/SUBIC , PH)
Text: TAF RPLB 240500Z 2406/2506 05007KT 9999 FEW020 SCT300 TX31/2406Z TN22/2422Z
Forecast period: 0600 UTC 24 January 2019 to 0600 UTC 25 January 2019
Forecast type: FROM: standard forecast or significant change
Winds: from the NE (50 degrees) at 8 MPH (7 knots; 3.6 m/s)
Visibility: 6 or more miles 10+ km)
Ceiling: at least 12,000 feet AGL
Clouds: few clouds at 2000 feet AGL
scattered clouds at 30000 feet AGL
Weather: no significant weather forecast for this period
Text: TEMPO 2406/2412 06009KT SCT020 BKN080
Forecast period: 0600 to 1200 UTC 24 January 2019
Forecast type: TEMPORARY: The following changes expected for less than half the time period
Winds: from the ENE (60 degrees) at 10 MPH (9 knots; 4.6 m/s)
Visibility: missing
Ceiling: 8000 feet AGL
Clouds: scattered clouds at 2000 feet AGL
broken clouds at 8000 feet AGL
Weather: no significant weather forecast for this period